首页
METAR-TAF:

METAR-TAF

机场 :

比爾德達勒, 冰岛

纬度: 65-38-30N, 经度: 23-32-45W, 海拔: 8米

当前天气观测

该预报发布于1小时和54分钟前的11:00 UTC
风速3节,风向
温度 11°C
湿度 100%
气压 994 hPa
能见度10公里或以上
散云层高于1500英尺
多云层高于2000英尺
多云层高于3000英尺

METAR: BIBD 251100Z 18003KT 9999 SCT015 BKN020 BKN030 11/11 Q0994 RMK THOKURUDNINGUR MED FJOLLUM

时间: 12:54 (12:54 UTC)

预报

该预报发布于2小时和26分钟前的10:28 UTC
预报有效从25日的 11点(UTC)到 25日的 16点(UTC)
风速2节,风向多变
能见度10公里或以上
多云层高于2500英尺

TAF: BIBD 251028Z 2511/2516 VRB02KT 9999 BKN025

超过4000个机场的气象观测和天气预报(METAR&TAF报告)。

可查询的气象台以黄色和红色小点在地图上表示。

将鼠标移到小点上方,可查看气象台名称。

然后点击查看天气观测和预报。

如需切换地图:点击带黑十字的绿色按钮放大地图;点击带横线的绿色按钮缩小地图;或者点击绿色箭头查看邻近地区的地图。


METAR-TAF: